sensor_id;sensor_type;location;lat;lon;timestamp;pressure;altitude;pressure_sealevel;temperature;humidity
68807;BME280;55800;54.272;18.558;2023-03-20T00:02:04;100862.38;;;10.28;61.59
68807;BME280;55800;54.272;18.558;2023-03-20T00:04:34;100871.31;;;10.27;61.54
68807;BME280;55800;54.272;18.558;2023-03-20T00:07:03;100860.75;;;10.24;61.32
68807;BME280;55800;54.272;18.558;2023-03-20T00:09:37;100865.28;;;10.22;61.52
68807;BME280;55800;54.272;18.558;2023-03-20T00:12:08;100860.09;;;10.17;61.43
68807;BME280;55800;54.272;18.558;2023-03-20T00:14:38;100861.06;;;10.15;61.38
68807;BME280;55800;54.272;18.558;2023-03-20T00:17:11;100850.53;;;10.10;61.37
68807;BME280;55800;54.272;18.558;2023-03-20T00:19:45;100853.25;;;10.09;61.42
68807;BME280;55800;54.272;18.558;2023-03-20T00:22:14;100848.94;;;10.05;61.30
68807;BME280;55800;54.272;18.558;2023-03-20T00:24:45;100842.81;;;10.01;61.22
68807;BME280;55800;54.272;18.558;2023-03-20T00:27:15;100847.41;;;9.98;61.34
68807;BME280;55800;54.272;18.558;2023-03-20T00:29:46;100849.25;;;9.96;61.21
68807;BME280;55800;54.272;18.558;2023-03-20T00:32:17;100843.19;;;9.91;61.43
68807;BME280;55800;54.272;18.558;2023-03-20T00:34:48;100846.91;;;9.87;61.39
68807;BME280;55800;54.272;18.558;2023-03-20T00:37:17;100850.56;;;9.84;61.25
68807;BME280;55800;54.272;18.558;2023-03-20T00:39:47;100849.81;;;9.81;61.29
68807;BME280;55800;54.272;18.558;2023-03-20T00:42:19;100841.03;;;9.77;61.38
68807;BME280;55800;54.272;18.558;2023-03-20T00:44:51;100843.81;;;9.74;61.23
68807;BME280;55800;54.272;18.558;2023-03-20T00:47:27;100843.94;;;9.71;61.32
68807;BME280;55800;54.272;18.558;2023-03-20T00:49:57;100835.94;;;9.70;61.27
68807;BME280;55800;54.272;18.558;2023-03-20T00:52:27;100836.91;;;9.67;61.35
68807;BME280;55800;54.272;18.558;2023-03-20T00:54:57;100832.63;;;9.63;61.26
68807;BME280;55800;54.272;18.558;2023-03-20T00:57:28;100829.19;;;9.60;61.23
68807;BME280;55800;54.272;18.558;2023-03-20T01:00:02;100833.72;;;9.58;61.28
68807;BME280;55800;54.272;18.558;2023-03-20T01:02:33;100836.47;;;9.55;61.25
68807;BME280;55800;54.272;18.558;2023-03-20T01:05:03;100827.78;;;9.50;61.30
68807;BME280;55800;54.272;18.558;2023-03-20T01:07:33;100828.75;;;9.47;61.32
68807;BME280;55800;54.272;18.558;2023-03-20T01:10:03;100825.31;;;9.43;60.99
68807;BME280;55800;54.272;18.558;2023-03-20T01:12:32;100821.81;;;9.41;61.25
68807;BME280;55800;54.272;18.558;2023-03-20T01:15:02;100821.97;;;9.37;61.29
68807;BME280;55800;54.272;18.558;2023-03-20T01:17:33;100819.47;;;9.32;61.50
68807;BME280;55800;54.272;18.558;2023-03-20T01:20:08;100816.94;;;9.28;61.60
68807;BME280;55800;54.272;18.558;2023-03-20T01:22:38;100819.59;;;9.28;61.38
68807;BME280;55800;54.272;18.558;2023-03-20T01:25:08;100830.34;;;9.26;61.32
68807;BME280;55800;54.272;18.558;2023-03-20T01:27:38;100825.09;;;9.23;61.56
68807;BME280;55800;54.272;18.558;2023-03-20T01:30:18;100820.78;;;9.19;61.93
68807;BME280;55800;54.272;18.558;2023-03-20T01:32:50;100827.16;;;9.15;61.65
68807;BME280;55800;54.272;18.558;2023-03-20T01:35:22;100820.06;;;9.14;61.68
68807;BME280;55800;54.272;18.558;2023-03-20T01:37:52;100827.28;;;9.11;62.44
68807;BME280;55800;54.272;18.558;2023-03-20T01:40:32;100815.03;;;9.05;62.41
68807;BME280;55800;54.272;18.558;2023-03-20T01:43:11;100821.28;;;9.04;62.12
68807;BME280;55800;54.272;18.558;2023-03-20T01:45:48;100822.22;;;9.03;62.05
68807;BME280;55800;54.272;18.558;2023-03-20T01:48:24;100821.28;;;9.04;61.65
68807;BME280;55800;54.272;18.558;2023-03-20T01:50:56;100817.72;;;9.04;61.70
68807;BME280;55800;54.272;18.558;2023-03-20T01:53:26;100829.34;;;9.03;61.23
68807;BME280;55800;54.272;18.558;2023-03-20T01:56:00;100817.88;;;8.99;61.41
68807;BME280;55800;54.272;18.558;2023-03-20T01:58:42;100811.72;;;8.97;61.64
68807;BME280;55800;54.272;18.558;2023-03-20T02:01:13;100814.44;;;8.96;61.65
68807;BME280;55800;54.272;18.558;2023-03-20T02:03:48;100795.84;;;8.94;61.75
68807;BME280;55800;54.272;18.558;2023-03-20T02:06:37;100799.41;;;8.93;61.72
68807;BME280;55800;54.272;18.558;2023-03-20T02:09:14;100800.34;;;8.92;61.65
68807;BME280;55800;54.272;18.558;2023-03-20T02:11:46;100795.94;;;8.91;61.71
68807;BME280;55800;54.272;18.558;2023-03-20T02:14:18;100798.66;;;8.90;61.54
68807;BME280;55800;54.272;18.558;2023-03-20T02:17:01;100795.97;;;8.90;61.75
68807;BME280;55800;54.272;18.558;2023-03-20T02:19:49;100794.28;;;8.87;61.64
68807;BME280;55800;54.272;18.558;2023-03-20T02:22:48;100785.47;;;8.85;61.64
68807;BME280;55800;54.272;18.558;2023-03-20T02:32:14;100785.88;;;8.73;61.64
68807;BME280;55800;54.272;18.558;2023-03-20T02:38:16;100782.47;;;8.68;61.64
68807;BME280;55800;54.272;18.558;2023-03-20T02:40:57;100781.75;;;8.63;62.48
68807;BME280;55800;54.272;18.558;2023-03-20T02:43:38;100775.56;;;8.61;61.99
68807;BME280;55800;54.272;18.558;2023-03-20T02:46:16;100772.28;;;8.53;62.49
68807;BME280;55800;54.272;18.558;2023-03-20T02:48:54;100771.38;;;8.54;61.80
68807;BME280;55800;54.272;18.558;2023-03-20T02:51:33;100767.91;;;8.50;62.56
68807;BME280;55800;54.272;18.558;2023-03-20T02:54:09;100765.34;;;8.47;62.17
68807;BME280;55800;54.272;18.558;2023-03-20T02:56:48;100753.00;;;8.45;61.83
68807;BME280;55800;54.272;18.558;2023-03-20T02:59:30;100753.06;;;8.42;61.54
68807;BME280;55800;54.272;18.558;2023-03-20T03:02:04;100749.59;;;8.40;61.71
68807;BME280;55800;54.272;18.558;2023-03-20T03:04:37;100749.69;;;8.37;61.65
68807;BME280;55800;54.272;18.558;2023-03-20T03:07:09;100748.81;;;8.36;61.66
68807;BME280;55800;54.272;18.558;2023-03-20T03:09:45;100752.44;;;8.34;61.74
68807;BME280;55800;54.272;18.558;2023-03-20T03:12:18;100755.31;;;8.28;63.53
68807;BME280;55800;54.272;18.558;2023-03-20T03:14:51;100748.13;;;8.30;62.23
68807;BME280;55800;54.272;18.558;2023-03-20T03:17:23;100757.88;;;8.31;62.95
68807;BME280;55800;54.272;18.558;2023-03-20T03:19:57;100746.28;;;8.32;62.04
68807;BME280;55800;54.272;18.558;2023-03-20T03:22:31;100741.91;;;8.31;62.43
68807;BME280;55800;54.272;18.558;2023-03-20T03:25:05;100747.38;;;8.25;64.00
68807;BME280;55800;54.272;18.558;2023-03-20T03:27:37;100744.75;;;8.23;63.44
68807;BME280;55800;54.272;18.558;2023-03-20T03:33:47;100746.69;;;8.18;64.61
68807;BME280;55800;54.272;18.558;2023-03-20T03:36:24;100743.09;;;8.19;64.39
68807;BME280;55800;54.272;18.558;2023-03-20T03:39:00;100745.81;;;8.18;65.45
68807;BME280;55800;54.272;18.558;2023-03-20T03:41:40;100742.22;;;8.19;64.26
68807;BME280;55800;54.272;18.558;2023-03-20T03:44:14;100744.81;;;8.22;64.37
68807;BME280;55800;54.272;18.558;2023-03-20T03:46:51;100737.69;;;8.22;63.73
68807;BME280;55800;54.272;18.558;2023-03-20T03:49:25;100732.31;;;8.24;63.21
68807;BME280;55800;54.272;18.558;2023-03-20T03:51:58;100730.59;;;8.23;63.28
68807;BME280;55800;54.272;18.558;2023-03-20T03:54:37;100732.31;;;8.24;63.13
68807;BME280;55800;54.272;18.558;2023-03-20T03:57:48;100730.53;;;8.24;62.97
68807;BME280;55800;54.272;18.558;2023-03-20T04:00:22;100724.31;;;8.24;63.26
68807;BME280;55800;54.272;18.558;2023-03-20T04:02:55;100721.63;;;8.25;63.43
68807;BME280;55800;54.272;18.558;2023-03-20T04:05:27;100720.75;;;8.25;63.02
68807;BME280;55800;54.272;18.558;2023-03-20T04:08:01;100721.66;;;8.24;62.98
68807;BME280;55800;54.272;18.558;2023-03-20T04:10:31;100716.34;;;8.24;62.96
68807;BME280;55800;54.272;18.558;2023-03-20T04:13:03;100707.44;;;8.25;62.96
68807;BME280;55800;54.272;18.558;2023-03-20T04:15:32;100706.53;;;8.26;63.01
68807;BME280;55800;54.272;18.558;2023-03-20T04:18:02;100707.41;;;8.26;63.02
68807;BME280;55800;54.272;18.558;2023-03-20T04:20:32;100710.97;;;8.27;63.10
68807;BME280;55800;54.272;18.558;2023-03-20T04:23:05;100715.41;;;8.26;63.02
68807;BME280;55800;54.272;18.558;2023-03-20T04:25:35;100718.00;;;8.28;63.07
68807;BME280;55800;54.272;18.558;2023-03-20T04:28:06;100718.00;;;8.28;63.02
68807;BME280;55800;54.272;18.558;2023-03-20T04:30:52;100713.56;;;8.28;63.06
68807;BME280;55800;54.272;18.558;2023-03-20T04:33:29;100715.28;;;8.29;62.96
68807;BME280;55800;54.272;18.558;2023-03-20T04:36:19;100709.13;;;8.29;63.05
68807;BME280;55800;54.272;18.558;2023-03-20T04:38:51;100714.44;;;8.29;62.97
68807;BME280;55800;54.272;18.558;2023-03-20T04:41:24;100718.84;;;8.30;63.03
68807;BME280;55800;54.272;18.558;2023-03-20T04:43:58;100725.94;;;8.29;62.97
68807;BME280;55800;54.272;18.558;2023-03-20T04:46:28;100725.09;;;8.29;62.99
68807;BME280;55800;54.272;18.558;2023-03-20T04:48:58;100720.59;;;8.31;62.96
68807;BME280;55800;54.272;18.558;2023-03-20T04:51:29;100723.25;;;8.31;63.00
68807;BME280;55800;54.272;18.558;2023-03-20T04:53:59;100721.44;;;8.31;62.97
68807;BME280;55800;54.272;18.558;2023-03-20T04:56:28;100721.50;;;8.30;62.80
68807;BME280;55800;54.272;18.558;2023-03-20T04:59:15;100718.88;;;8.28;63.19
68807;BME280;55800;54.272;18.558;2023-03-20T05:01:45;100717.09;;;8.29;63.28
68807;BME280;55800;54.272;18.558;2023-03-20T05:04:14;100713.50;;;8.30;63.19
68807;BME280;55800;54.272;18.558;2023-03-20T05:06:44;100700.19;;;8.30;63.26
68807;BME280;55800;54.272;18.558;2023-03-20T05:09:17;100713.50;;;8.30;63.39
68807;BME280;55800;54.272;18.558;2023-03-20T05:11:49;100708.13;;;8.31;63.42
68807;BME280;55800;54.272;18.558;2023-03-20T05:14:41;100709.00;;;8.32;63.46
68807;BME280;55800;54.272;18.558;2023-03-20T05:17:25;100708.91;;;8.35;63.58
68807;BME280;55800;54.272;18.558;2023-03-20T05:20:15;100703.66;;;8.33;63.50
68807;BME280;55800;54.272;18.558;2023-03-20T05:22:54;100708.03;;;8.34;63.50
68807;BME280;55800;54.272;18.558;2023-03-20T05:25:43;100701.00;;;8.33;63.50
68807;BME280;55800;54.272;18.558;2023-03-20T05:28:31;100712.47;;;8.35;63.46
68807;BME280;55800;54.272;18.558;2023-03-20T05:31:13;100705.31;;;8.36;63.95
68807;BME280;55800;54.272;18.558;2023-03-20T05:34:04;100713.28;;;8.37;63.62
68807;BME280;55800;54.272;18.558;2023-03-20T05:36:49;100713.22;;;8.39;64.03
68807;BME280;55800;54.272;18.558;2023-03-20T05:39:37;100710.56;;;8.39;63.62
68807;BME280;55800;54.272;18.558;2023-03-20T05:42:18;100703.41;;;8.41;63.77
68807;BME280;55800;54.272;18.558;2023-03-20T05:45:20;100703.41;;;8.41;63.69
68807;BME280;55800;54.272;18.558;2023-03-20T05:48:10;100703.41;;;8.41;63.70
68807;BME280;55800;54.272;18.558;2023-03-20T05:51:15;100710.44;;;8.42;63.72
68807;BME280;55800;54.272;18.558;2023-03-20T05:54:14;100710.38;;;8.45;63.74
68807;BME280;55800;54.272;18.558;2023-03-20T05:57:04;100708.53;;;8.47;63.83
68807;BME280;55800;54.272;18.558;2023-03-20T05:59:44;100710.22;;;8.49;63.81
68807;BME280;55800;54.272;18.558;2023-03-20T06:02:33;100709.19;;;8.53;63.79
68807;BME280;55800;54.272;18.558;2023-03-20T06:05:14;100708.25;;;8.56;63.91
68807;BME280;55800;54.272;18.558;2023-03-20T06:07:49;100709.88;;;8.60;63.83
68807;BME280;55800;54.272;18.558;2023-03-20T06:10:19;100700.09;;;8.60;63.62
68807;BME280;55800;54.272;18.558;2023-03-20T06:12:51;100704.41;;;8.64;63.89
68807;BME280;55800;54.272;18.558;2023-03-20T06:15:24;100703.31;;;8.70;63.96
68807;BME280;55800;54.272;18.558;2023-03-20T06:18:01;100695.19;;;8.75;63.96
68807;BME280;55800;54.272;18.558;2023-03-20T06:20:32;100712.88;;;8.77;63.67
68807;BME280;55800;54.272;18.558;2023-03-20T06:23:04;100702.06;;;8.82;64.04
68807;BME280;55800;54.272;18.558;2023-03-20T06:25:33;100704.59;;;8.85;63.70
68807;BME280;55800;54.272;18.558;2023-03-20T06:28:04;100707.13;;;8.89;64.18
68807;BME280;55800;54.272;18.558;2023-03-20T06:30:34;100707.84;;;8.94;63.90
68807;BME280;55800;54.272;18.558;2023-03-20T06:33:06;100712.16;;;8.98;63.92
68807;BME280;55800;54.272;18.558;2023-03-20T06:35:48;100712.88;;;9.03;63.98
68807;BME280;55800;54.272;18.558;2023-03-20T06:38:18;100710.00;;;9.09;64.02
68807;BME280;55800;54.272;18.558;2023-03-20T06:40:48;100712.53;;;9.12;63.95
68807;BME280;55800;54.272;18.558;2023-03-20T06:43:18;100707.94;;;9.17;63.99
68807;BME280;55800;54.272;18.558;2023-03-20T06:45:51;100706.00;;;9.22;64.12
68807;BME280;55800;54.272;18.558;2023-03-20T06:48:27;100706.69;;;9.27;64.29
68807;BME280;55800;54.272;18.558;2023-03-20T06:50:58;100706.47;;;9.33;64.37
68807;BME280;55800;54.272;18.558;2023-03-20T06:53:34;100704.44;;;9.40;64.22
68807;BME280;55800;54.272;18.558;2023-03-20T06:56:07;100706.03;;;9.46;64.16
68807;BME280;55800;54.272;18.558;2023-03-20T06:58:40;100707.50;;;9.54;64.34
68807;BME280;55800;54.272;18.558;2023-03-20T07:01:12;100709.88;;;9.62;64.60
68807;BME280;55800;54.272;18.558;2023-03-20T07:03:43;100710.53;;;9.68;65.38
68807;BME280;55800;54.272;18.558;2023-03-20T07:06:16;100710.31;;;9.74;64.95
68807;BME280;55800;54.272;18.558;2023-03-20T07:08:46;100714.44;;;9.83;65.40
68807;BME280;55800;54.272;18.558;2023-03-20T07:11:17;100715.97;;;9.90;65.02
68807;BME280;55800;54.272;18.558;2023-03-20T07:13:49;100719.22;;;9.98;66.33
68807;BME280;55800;54.272;18.558;2023-03-20T07:16:28;100718.09;;;10.03;65.93
68807;BME280;55800;54.272;18.558;2023-03-20T07:18:58;100716.91;;;10.12;66.63
68807;BME280;55800;54.272;18.558;2023-03-20T07:21:30;100722.94;;;10.17;65.85
68807;BME280;55800;54.272;18.558;2023-03-20T07:24:00;100718.31;;;10.22;66.50
68807;BME280;55800;54.272;18.558;2023-03-20T07:26:30;100723.34;;;10.30;66.85
68807;BME280;55800;54.272;18.558;2023-03-20T07:29:00;100720.44;;;10.36;66.45
68807;BME280;55800;54.272;18.558;2023-03-20T07:31:31;100717.66;;;10.39;66.23
68807;BME280;55800;54.272;18.558;2023-03-20T07:34:09;100726.16;;;10.48;66.71
68807;BME280;55800;54.272;18.558;2023-03-20T07:36:41;100714.31;;;10.55;66.30
68807;BME280;55800;54.272;18.558;2023-03-20T07:39:13;100724.63;;;10.64;66.75
68807;BME280;55800;54.272;18.558;2023-03-20T07:41:51;100711.00;;;10.70;68.54
68807;BME280;55800;54.272;18.558;2023-03-20T07:44:36;100710.75;;;10.76;67.27
68807;BME280;55800;54.272;18.558;2023-03-20T07:47:10;100721.13;;;10.84;66.60
68807;BME280;55800;54.272;18.558;2023-03-20T07:49:39;100705.84;;;10.87;68.25
68807;BME280;55800;54.272;18.558;2023-03-20T07:52:11;100709.13;;;10.94;68.46
68807;BME280;55800;54.272;18.558;2023-03-20T07:54:41;100715.91;;;11.03;67.73
68807;BME280;55800;54.272;18.558;2023-03-20T07:57:10;100709.34;;;11.10;67.49
68807;BME280;55800;54.272;18.558;2023-03-20T07:59:40;100710.66;;;11.20;68.50
68807;BME280;55800;54.272;18.558;2023-03-20T08:02:12;100705.81;;;11.29;69.43
68807;BME280;55800;54.272;18.558;2023-03-20T08:04:43;100707.91;;;11.43;68.49
68807;BME280;55800;54.272;18.558;2023-03-20T08:07:15;100712.19;;;11.47;68.50
68807;BME280;55800;54.272;18.558;2023-03-20T08:09:48;100714.44;;;11.56;68.67
68807;BME280;55800;54.272;18.558;2023-03-20T08:12:17;100715.91;;;11.63;68.73
68807;BME280;55800;54.272;18.558;2023-03-20T08:14:47;100709.50;;;11.67;68.74
68807;BME280;55800;54.272;18.558;2023-03-20T08:17:16;100710.81;;;11.77;68.91
68807;BME280;55800;54.272;18.558;2023-03-20T08:19:48;100705.25;;;11.82;69.36
68807;BME280;55800;54.272;18.558;2023-03-20T08:22:19;100702.25;;;11.89;69.48
68807;BME280;55800;54.272;18.558;2023-03-20T08:24:51;100705.44;;;11.97;69.31
68807;BME280;55800;54.272;18.558;2023-03-20T08:27:20;100711.22;;;12.07;69.34
68807;BME280;55800;54.272;18.558;2023-03-20T08:29:49;100714.50;;;12.13;69.51
68807;BME280;55800;54.272;18.558;2023-03-20T08:32:20;100704.44;;;12.18;69.09
68807;BME280;55800;54.272;18.558;2023-03-20T08:34:49;100704.94;;;12.26;69.82
68807;BME280;55800;54.272;18.558;2023-03-20T08:37:24;100703.78;;;12.32;68.54
68807;BME280;55800;54.272;18.558;2023-03-20T08:39:54;100705.38;;;12.36;69.04
68807;BME280;55800;54.272;18.558;2023-03-20T08:42:24;100712.25;;;12.41;68.86
68807;BME280;55800;54.272;18.558;2023-03-20T08:44:54;100707.69;;;12.43;69.27
68807;BME280;55800;54.272;18.558;2023-03-20T08:47:23;100698.34;;;12.52;69.05
68807;BME280;55800;54.272;18.558;2023-03-20T08:49:53;100697.00;;;12.61;69.06
68807;BME280;55800;54.272;18.558;2023-03-20T08:52:25;100697.69;;;12.66;69.14
68807;BME280;55800;54.272;18.558;2023-03-20T08:54:55;100689.41;;;12.70;69.33
68807;BME280;55800;54.272;18.558;2023-03-20T08:57:24;100700.63;;;12.78;69.05
68807;BME280;55800;54.272;18.558;2023-03-20T08:59:54;100700.31;;;12.84;68.95
68807;BME280;55800;54.272;18.558;2023-03-20T09:02:23;100704.00;;;12.82;69.06
68807;BME280;55800;54.272;18.558;2023-03-20T09:04:53;100690.75;;;12.96;68.76
68807;BME280;55800;54.272;18.558;2023-03-20T09:07:29;100688.81;;;12.99;68.59
68807;BME280;55800;54.272;18.558;2023-03-20T09:09:59;100693.66;;;13.10;69.56
68807;BME280;55800;54.272;18.558;2023-03-20T09:12:29;100696.72;;;13.19;68.93
68807;BME280;55800;54.272;18.558;2023-03-20T09:14:59;100688.34;;;13.25;69.18
68807;BME280;55800;54.272;18.558;2023-03-20T09:17:33;100691.78;;;13.29;68.33
68807;BME280;55800;54.272;18.558;2023-03-20T09:20:03;100695.16;;;13.32;68.33
68807;BME280;55800;54.272;18.558;2023-03-20T09:22:36;100700.94;;;13.42;68.54
68807;BME280;55800;54.272;18.558;2023-03-20T09:25:09;100695.94;;;13.52;68.49
68807;BME280;55800;54.272;18.558;2023-03-20T09:27:39;100693.13;;;13.70;68.14
68807;BME280;55800;54.272;18.558;2023-03-20T09:30:09;100697.88;;;13.82;66.98
68807;BME280;55800;54.272;18.558;2023-03-20T09:32:40;100704.63;;;13.89;66.62
68807;BME280;55800;54.272;18.558;2023-03-20T09:35:10;100700.69;;;13.96;67.04
68807;BME280;55800;54.272;18.558;2023-03-20T09:37:41;100700.34;;;14.02;66.99
68807;BME280;55800;54.272;18.558;2023-03-20T09:40:21;100707.13;;;14.09;66.90
68807;BME280;55800;54.272;18.558;2023-03-20T09:43:01;100711.28;;;14.15;66.19
68807;BME280;55800;54.272;18.558;2023-03-20T09:45:44;100715.47;;;14.21;65.92
68807;BME280;55800;54.272;18.558;2023-03-20T09:48:25;100721.06;;;14.33;66.54
68807;BME280;55800;54.272;18.558;2023-03-20T09:51:03;100717.06;;;14.40;66.27
68807;BME280;55800;54.272;18.558;2023-03-20T09:53:39;100719.34;;;14.48;66.15
68807;BME280;55800;54.272;18.558;2023-03-20T09:56:14;100728.00;;;14.53;65.73
68807;BME280;55800;54.272;18.558;2023-03-20T09:58:50;100728.72;;;14.56;65.23
68807;BME280;55800;54.272;18.558;2023-03-20T10:01:22;100741.47;;;14.68;65.45
68807;BME280;55800;54.272;18.558;2023-03-20T10:03:54;100734.69;;;14.77;65.00
68807;BME280;55800;54.272;18.558;2023-03-20T10:06:24;100728.38;;;14.78;64.56
68807;BME280;55800;54.272;18.558;2023-03-20T10:08:56;100741.84;;;14.78;64.74
68807;BME280;55800;54.272;18.558;2023-03-20T10:11:54;100739.03;;;14.79;64.72
68807;BME280;55800;54.272;18.558;2023-03-20T10:14:45;100734.44;;;14.81;65.07
68807;BME280;55800;54.272;18.558;2023-03-20T10:17:29;100738.59;;;14.87;64.73
68807;BME280;55800;54.272;18.558;2023-03-20T10:20:09;100748.41;;;14.88;64.41
68807;BME280;55800;54.272;18.558;2023-03-20T10:22:44;100743.72;;;14.92;64.40
68807;BME280;55800;54.272;18.558;2023-03-20T10:25:25;100739.09;;;14.94;64.36
68807;BME280;55800;54.272;18.558;2023-03-20T10:27:59;100741.94;;;15.06;64.59
68807;BME280;55800;54.272;18.558;2023-03-20T10:30:40;100742.72;;;15.08;64.31
68807;BME280;55800;54.272;18.558;2023-03-20T10:33:29;100754.38;;;15.09;63.43
68807;BME280;55800;54.272;18.558;2023-03-20T10:36:13;100752.31;;;14.98;62.71
68807;BME280;55800;54.272;18.558;2023-03-20T10:38:56;100744.59;;;14.92;62.47
68807;BME280;55800;54.272;18.558;2023-03-20T10:41:33;100752.31;;;14.82;62.21
68807;BME280;55800;54.272;18.558;2023-03-20T10:44:13;100753.78;;;14.72;62.37
68807;BME280;55800;54.272;18.558;2023-03-20T10:46:51;100754.41;;;14.62;62.49
68807;BME280;55800;54.272;18.558;2023-03-20T10:49:29;100769.84;;;14.58;62.61
68807;BME280;55800;54.272;18.558;2023-03-20T10:52:02;100755.69;;;14.55;62.52
68807;BME280;55800;54.272;18.558;2023-03-20T10:54:43;100755.97;;;14.50;62.54
68807;BME280;55800;54.272;18.558;2023-03-20T10:57:20;100752.50;;;14.48;62.69
68807;BME280;55800;54.272;18.558;2023-03-20T10:59:53;100760.81;;;14.44;62.43
68807;BME280;55800;54.272;18.558;2023-03-20T11:02:28;100756.38;;;14.43;62.64
68807;BME280;55800;54.272;18.558;2023-03-20T11:04:59;100751.19;;;14.40;62.59
68807;BME280;55800;54.272;18.558;2023-03-20T11:07:32;100746.66;;;14.40;62.51
68807;BME280;55800;54.272;18.558;2023-03-20T11:10:09;100757.41;;;14.40;62.73
68807;BME280;55800;54.272;18.558;2023-03-20T11:12:42;100751.25;;;14.38;62.57
68807;BME280;55800;54.272;18.558;2023-03-20T11:15:22;100755.59;;;14.41;62.14
68807;BME280;55800;54.272;18.558;2023-03-20T11:17:56;100754.19;;;14.34;61.49
68807;BME280;55800;54.272;18.558;2023-03-20T11:20:31;100757.16;;;14.29;62.14
68807;BME280;55800;54.272;18.558;2023-03-20T11:23:03;100761.66;;;14.29;61.80
68807;BME280;55800;54.272;18.558;2023-03-20T11:25:35;100757.19;;;14.28;62.03
68807;BME280;55800;54.272;18.558;2023-03-20T11:28:36;100750.91;;;14.29;62.25
68807;BME280;55800;54.272;18.558;2023-03-20T11:31:15;100756.28;;;14.29;61.99
68807;BME280;55800;54.272;18.558;2023-03-20T11:33:49;100755.31;;;14.30;62.51
68807;BME280;55800;54.272;18.558;2023-03-20T11:36:25;100756.28;;;14.29;62.44
68807;BME280;55800;54.272;18.558;2023-03-20T11:39:00;100753.50;;;14.30;62.20
68807;BME280;55800;54.272;18.558;2023-03-20T11:41:33;100748.22;;;14.29;61.54
68807;BME280;55800;54.272;18.558;2023-03-20T11:44:04;100751.03;;;14.26;61.69
68807;BME280;55800;54.272;18.558;2023-03-20T11:46:55;100747.56;;;14.24;61.53
68807;BME280;55800;54.272;18.558;2023-03-20T11:49:25;100749.38;;;14.23;61.65
68807;BME280;55800;54.272;18.558;2023-03-20T11:51:59;100744.88;;;14.24;61.56
68807;BME280;55800;54.272;18.558;2023-03-20T11:54:30;100742.38;;;14.21;61.51
68807;BME280;55800;54.272;18.558;2023-03-20T11:57:00;100753.91;;;14.23;61.67
68807;BME280;55800;54.272;18.558;2023-03-20T11:59:33;100748.44;;;14.24;61.49
68807;BME280;55800;54.272;18.558;2023-03-20T12:02:15;100746.16;;;14.17;61.00
68807;BME280;55800;54.272;18.558;2023-03-20T12:04:47;100761.81;;;14.08;61.24
68807;BME280;55800;54.272;18.558;2023-03-20T12:07:18;100752.03;;;14.07;61.55
68807;BME280;55800;54.272;18.558;2023-03-20T12:09:49;100755.84;;;14.03;61.43
68807;BME280;55800;54.272;18.558;2023-03-20T12:12:33;100764.06;;;14.00;61.70
68807;BME280;55800;54.272;18.558;2023-03-20T12:15:15;100762.25;;;14.01;61.57
68807;BME280;55800;54.272;18.558;2023-03-20T12:17:48;100753.66;;;13.94;61.31
68807;BME280;55800;54.272;18.558;2023-03-20T12:20:27;100754.59;;;13.93;61.48
68807;BME280;55800;54.272;18.558;2023-03-20T12:23:10;100758.34;;;13.91;61.71
68807;BME280;55800;54.272;18.558;2023-03-20T12:25:46;100754.91;;;13.87;61.55
68807;BME280;55800;54.272;18.558;2023-03-20T12:28:22;100760.47;;;13.84;61.59
68807;BME280;55800;54.272;18.558;2023-03-20T12:31:05;100747.28;;;13.80;61.42
68807;BME280;55800;54.272;18.558;2023-03-20T12:33:43;100744.81;;;13.75;61.53
68807;BME280;55800;54.272;18.558;2023-03-20T12:36:15;100751.06;;;13.76;61.98
68807;BME280;55800;54.272;18.558;2023-03-20T12:38:46;100735.78;;;13.76;62.29
68807;BME280;55800;54.272;18.558;2023-03-20T12:41:15;100729.94;;;13.85;62.49
68807;BME280;55800;54.272;18.558;2023-03-20T12:44:13;100727.88;;;13.90;62.38
68807;BME280;55800;54.272;18.558;2023-03-20T12:46:50;100724.88;;;13.96;62.63
68807;BME280;55800;54.272;18.558;2023-03-20T12:49:33;100723.59;;;14.03;62.47
68807;BME280;55800;54.272;18.558;2023-03-20T12:52:11;100721.50;;;14.08;61.89
68807;BME280;55800;54.272;18.558;2023-03-20T12:54:50;100714.56;;;14.04;60.86
68807;BME280;55800;54.272;18.558;2023-03-20T12:57:27;100719.34;;;13.99;61.19
68807;BME280;55800;54.272;18.558;2023-03-20T13:00:18;100710.53;;;13.96;61.09
68807;BME280;55800;54.272;18.558;2023-03-20T13:03:05;100717.13;;;13.90;61.15
68807;BME280;55800;54.272;18.558;2023-03-20T13:05:43;100712.34;;;13.95;61.13
68807;BME280;55800;54.272;18.558;2023-03-20T13:08:30;100699.88;;;13.94;61.49
68807;BME280;55800;54.272;18.558;2023-03-20T13:11:12;100706.28;;;13.92;60.76
68807;BME280;55800;54.272;18.558;2023-03-20T13:13:47;100705.50;;;13.90;61.04
68807;BME280;55800;54.272;18.558;2023-03-20T13:16:25;100704.81;;;13.86;60.58
68807;BME280;55800;54.272;18.558;2023-03-20T13:19:04;100705.06;;;13.82;60.97
68807;BME280;55800;54.272;18.558;2023-03-20T13:21:40;100714.16;;;13.79;60.86
68807;BME280;55800;54.272;18.558;2023-03-20T13:24:22;100707.06;;;13.78;61.29
68807;BME280;55800;54.272;18.558;2023-03-20T13:27:04;100707.91;;;13.79;61.22
68807;BME280;55800;54.272;18.558;2023-03-20T13:29:44;100711.69;;;13.75;61.31
68807;BME280;55800;54.272;18.558;2023-03-20T13:32:18;100711.78;;;13.73;60.87
68807;BME280;55800;54.272;18.558;2023-03-20T13:35:00;100719.31;;;13.67;60.97
68807;BME280;55800;54.272;18.558;2023-03-20T13:37:39;100717.19;;;13.56;60.34
68807;BME280;55800;54.272;18.558;2023-03-20T13:40:13;100732.84;;;13.48;60.28
68807;BME280;55800;54.272;18.558;2023-03-20T13:42:49;100730.94;;;13.33;60.29